Oak Grove, California
Current Conditions -  °F | °C
As of 11:53 PM on Sunday 23 Nov 2014 (Local Time) from KOVE Reporting Station
Clear Clear  
Wind Chill: 42°   Ceiling: Unl
Heat Index: 45°   Visibility: 10mi
Dew Point: 41°   Wind: 6mph
Humidity: 86%   Direction: 90°E
Pressure: 30.35"   Gusts: NA
Location:  39.5324°N, 121.648°W
Report Text: KOVE 240753Z AUTO 09005KT 10SM CLR 07/05 A3035 RMK AO2 SLP280 T00720050 401500056
Loading
Personal Weather Stations






























Interactive Weather Map New forecast layout! Learn more

10-Day Weather Forecast

Advertisements
Track Severe Weather on mobile